createdAt,value
2024-04-18T00:00:40.324Z,1.13
2024-04-18T00:05:42.079Z,1.38
2024-04-18T00:10:44.728Z,1.13
2024-04-18T00:16:06.718Z,1.27
2024-04-18T00:21:08.461Z,1.17
2024-04-18T00:26:28.523Z,1.60
2024-04-18T00:31:39.321Z,1.65
2024-04-18T00:36:41.070Z,1.50
2024-04-18T00:41:57.848Z,1.40
2024-04-18T00:47:05.972Z,1.20
2024-04-18T00:52:12.338Z,1.63
2024-04-18T00:57:29.024Z,1.40
2024-04-18T01:02:31.406Z,1.38
2024-04-18T01:07:52.184Z,1.50
2024-04-18T01:13:01.357Z,1.38
2024-04-18T01:18:38.907Z,1.27
2024-04-18T01:23:50.144Z,1.90
2024-04-18T01:28:52.575Z,2.13
2024-04-18T01:34:07.020Z,2.33
2024-04-18T01:39:09.128Z,2.65
2024-04-18T01:44:11.869Z,2.95
2024-04-18T01:49:32.310Z,2.90
2024-04-18T01:54:34.898Z,3.15
2024-04-18T01:59:36.864Z,3.17
2024-04-18T02:04:38.962Z,3.35
2024-04-18T02:09:41.025Z,3.60
2024-04-18T02:15:00.910Z,3.08
2024-04-18T02:20:02.917Z,3.20
2024-04-18T02:25:16.820Z,2.92
2024-04-18T02:30:18.905Z,3.33
2024-04-18T02:35:20.823Z,3.72
2024-04-18T02:40:35.044Z,4.63
2024-04-18T02:45:37.100Z,4.13
2024-04-18T02:50:57.559Z,4.32
2024-04-18T02:55:59.605Z,4.55
2024-04-18T03:01:07.405Z,4.53
2024-04-18T03:06:13.925Z,4.70
2024-04-18T03:11:16.281Z,4.60
2024-04-18T03:16:38.297Z,4.53
2024-04-18T03:21:56.110Z,5.43
2024-04-18T03:26:58.266Z,5.60
2024-04-18T03:32:00.577Z,5.15
2024-04-18T03:37:21.961Z,5.95
2024-04-18T03:42:24.097Z,5.15
2024-04-18T03:47:28.753Z,5.30
2024-04-18T03:52:45.837Z,5.40
2024-04-18T03:58:06.230Z,5.65
2024-04-18T04:03:23.766Z,5.90
2024-04-18T04:08:25.876Z,5.82
2024-04-18T04:13:45.983Z,5.35
2024-04-18T04:18:56.732Z,6.00
2024-04-18T04:24:17.594Z,6.07
2024-04-18T04:29:25.549Z,6.00
2024-04-18T04:34:27.502Z,6.10
2024-04-18T04:39:29.582Z,6.10
2024-04-18T04:44:51.594Z,5.82
2024-04-18T04:50:06.383Z,5.93
2024-04-18T04:55:11.373Z,6.07
2024-04-18T05:00:14.090Z,6.07
2024-04-18T05:05:31.058Z,5.75
2024-04-18T05:10:46.734Z,6.07
2024-04-18T05:15:49.165Z,6.28
2024-04-18T05:21:06.813Z,5.68
2024-04-18T05:26:34.283Z,5.60
2024-04-18T05:31:38.319Z,5.45
2024-04-18T05:36:41.511Z,5.72
2024-04-18T05:41:43.188Z,5.00
2024-04-18T05:47:03.889Z,5.85
2024-04-18T05:52:06.922Z,5.63
2024-04-18T05:57:08.861Z,5.50
2024-04-18T06:02:25.789Z,5.88
2024-04-18T06:07:27.515Z,5.15
2024-04-18T06:12:29.216Z,5.47
2024-04-18T06:17:30.984Z,5.25
2024-04-18T06:22:32.899Z,5.72
2024-04-18T06:27:54.919Z,5.40
2024-04-18T06:32:56.988Z,5.00
2024-04-18T06:37:58.697Z,4.75
2024-04-18T06:43:00.532Z,4.95
2024-04-18T06:48:02.438Z,5.13
2024-04-18T06:53:04.712Z,5.28
2024-04-18T06:58:06.534Z,5.22
2024-04-18T07:03:08.939Z,6.72
2024-04-18T07:08:26.057Z,5.38
2024-04-18T07:13:33.265Z,5.07
2024-04-18T07:18:56.180Z,5.85
2024-04-18T07:24:01.162Z,5.20
2024-04-18T07:29:23.634Z,5.15
2024-04-18T07:34:25.523Z,5.32
2024-04-18T07:39:27.448Z,5.38
2024-04-18T07:44:29.150Z,4.72
2024-04-18T07:49:30.876Z,4.93
2024-04-18T07:54:32.559Z,4.82
2024-04-18T07:59:34.542Z,4.22
2024-04-18T08:04:52.702Z,4.57
2024-04-18T08:10:02.975Z,4.75
2024-04-18T08:15:11.943Z,4.72
2024-04-18T08:20:16.970Z,5.28
2024-04-18T08:25:18.668Z,5.22
2024-04-18T08:30:20.735Z,2.95
2024-04-18T08:35:22.418Z,3.17
2024-04-18T08:40:24.245Z,3.65
2024-04-18T08:45:27.128Z,4.65
2024-04-18T08:50:33.026Z,4.60
2024-04-18T08:55:36.607Z,4.47
2024-04-18T09:00:45.359Z,4.10
2024-04-18T09:05:47.160Z,3.85
2024-04-18T09:10:49.351Z,3.90
2024-04-18T09:15:51.012Z,3.70
2024-04-18T09:20:53.885Z,3.95
2024-04-18T09:25:55.618Z,3.80
2024-04-18T09:30:59.754Z,3.83
2024-04-18T09:36:02.740Z,3.65
2024-04-18T09:41:29.369Z,3.60
2024-04-18T09:46:35.682Z,4.00
2024-04-18T09:51:38.226Z,3.40
2024-04-18T09:56:40.047Z,3.97
2024-04-18T10:01:43.440Z,4.13
2024-04-18T10:06:47.496Z,3.67
2024-04-18T10:11:50.333Z,5.20
2024-04-18T10:16:52.127Z,6.45
2024-04-18T10:22:11.129Z,6.10
2024-04-18T10:27:22.146Z,5.95
2024-04-18T10:32:33.738Z,5.60
2024-04-18T10:37:36.592Z,6.15
2024-04-18T10:42:38.634Z,5.65
2024-04-18T10:47:41.142Z,5.55
2024-04-18T10:52:42.856Z,5.85
2024-04-18T10:57:44.560Z,5.50
2024-04-18T11:02:46.369Z,5.95
2024-04-18T11:07:57.234Z,6.03
2024-04-18T11:13:01.383Z,5.72
2024-04-18T11:18:06.672Z,5.07
2024-04-18T11:23:15.061Z,5.38
2024-04-18T11:28:18.695Z,4.70
2024-04-18T11:33:23.999Z,4.88
2024-04-18T11:38:26.026Z,5.47
2024-04-18T11:43:27.962Z,3.55
2024-04-18T11:48:29.783Z,3.00
2024-04-18T11:53:31.861Z,3.60
2024-04-18T11:58:33.561Z,4.07
2024-04-18T12:03:35.861Z,4.68
2024-04-18T12:08:37.592Z,3.72
2024-04-18T12:13:59.363Z,4.45
2024-04-18T12:19:01.104Z,4.38
2024-04-18T12:24:02.845Z,4.32
2024-04-18T12:29:09.680Z,4.15
2024-04-18T12:34:30.211Z,3.63
2024-04-18T12:39:37.931Z,3.92
2024-04-18T12:44:58.916Z,3.80
2024-04-18T12:50:00.736Z,3.42
2024-04-18T12:55:02.561Z,3.55
2024-04-18T13:00:06.034Z,3.10
2024-04-18T13:05:26.381Z,3.45
2024-04-18T13:10:38.642Z,3.00
2024-04-18T13:16:00.770Z,2.97
2024-04-18T13:21:04.507Z,3.40
2024-04-18T13:26:06.236Z,3.38
2024-04-18T13:31:12.691Z,2.50
2024-04-18T13:36:43.523Z,2.28
2024-04-18T13:41:46.583Z,2.28
2024-04-18T13:46:51.083Z,2.40
2024-04-18T13:52:11.387Z,2.50
2024-04-18T13:57:18.190Z,2.17
2024-04-18T14:02:20.695Z,1.85
2024-04-18T14:07:22.505Z,1.90
2024-04-18T14:12:24.264Z,1.80
2024-04-18T14:17:50.130Z,1.63
2024-04-18T14:22:51.980Z,1.70
2024-04-18T14:27:53.647Z,1.90
2024-04-18T14:33:11.085Z,2.00
2024-04-18T14:38:12.863Z,2.08
2024-04-18T14:43:14.894Z,2.08
2024-04-18T14:48:16.588Z,2.03
2024-04-18T14:53:19.547Z,2.22
2024-04-18T14:58:42.117Z,2.13
2024-04-18T15:03:56.261Z,1.40
2024-04-18T15:08:58.269Z,1.40
2024-04-18T15:13:59.932Z,1.58
2024-04-18T15:19:01.819Z,1.80
2024-04-18T15:24:23.940Z,1.50
2024-04-18T15:29:34.731Z,1.15
2024-04-18T15:34:55.256Z,1.60
2024-04-18T15:40:33.436Z,1.52
2024-04-18T15:45:40.936Z,1.60
2024-04-18T15:50:58.123Z,1.10
2024-04-18T15:56:05.657Z,1.38
2024-04-18T16:01:27.384Z,1.60
2024-04-18T16:06:47.493Z,1.38
2024-04-18T16:11:49.243Z,1.83
2024-04-18T16:17:06.200Z,1.52
2024-04-18T16:22:13.546Z,1.57
2024-04-18T16:27:24.032Z,1.30
2024-04-18T16:32:34.833Z,1.23
2024-04-18T16:37:40.570Z,1.10
2024-04-18T16:42:48.723Z,1.17
2024-04-18T16:47:51.854Z,1.05
2024-04-18T16:52:54.076Z,1.30
2024-04-18T16:58:15.685Z,1.10
2024-04-18T17:03:29.588Z,1.30
2024-04-18T17:08:32.142Z,1.45
2024-04-18T17:13:33.861Z,1.75
2024-04-18T17:18:45.232Z,1.95
2024-04-18T17:23:47.173Z,2.20
2024-04-18T17:28:48.852Z,2.50
2024-04-18T17:34:10.523Z,2.28
2024-04-18T17:39:18.082Z,2.30
2024-04-18T17:44:19.786Z,2.75
2024-04-18T17:49:28.225Z,2.72
2024-04-18T17:54:30.131Z,2.50
2024-04-18T17:59:31.838Z,2.40
2024-04-18T18:04:33.659Z,2.35
2024-04-18T18:09:36.954Z,2.90
2024-04-18T18:14:38.848Z,2.95
2024-04-18T18:19:40.730Z,3.10
2024-04-18T18:24:42.507Z,2.95
2024-04-18T18:29:44.278Z,3.08
2024-04-18T18:34:47.238Z,3.17
2024-04-18T18:39:49.623Z,3.15
2024-04-18T18:44:51.362Z,3.20
2024-04-18T18:49:53.079Z,3.30
2024-04-18T18:54:55.689Z,3.53
2024-04-18T18:59:57.701Z,3.15
2024-04-18T19:04:59.437Z,3.70
2024-04-18T19:10:01.222Z,22.58
2024-04-18T19:15:03.006Z,4.60
2024-04-18T19:20:05.079Z,3.90
2024-04-18T19:25:06.942Z,4.38
2024-04-18T19:30:09.162Z,3.35
2024-04-18T19:35:13.692Z,3.40
2024-04-18T19:40:16.484Z,4.15
2024-04-18T19:45:37.948Z,4.75
2024-04-18T19:50:40.474Z,3.80
2024-04-18T19:56:02.501Z,4.43
2024-04-18T20:01:06.797Z,3.70
2024-04-18T20:06:09.650Z,3.45
2024-04-18T20:11:27.191Z,4.18
2024-04-18T20:16:28.921Z,3.17
2024-04-18T20:21:45.931Z,2.70
2024-04-18T20:26:47.738Z,2.80
2024-04-18T20:31:49.427Z,4.55
2024-04-18T20:36:51.140Z,3.17
2024-04-18T20:41:54.336Z,3.22
2024-04-18T20:46:56.008Z,2.88
2024-04-18T20:51:57.673Z,2.45
2024-04-18T20:57:19.529Z,1.95
2024-04-18T21:02:21.894Z,2.28
2024-04-18T21:07:23.942Z,2.00
2024-04-18T21:12:27.824Z,1.90
2024-04-18T21:17:29.816Z,2.17
2024-04-18T21:22:31.700Z,1.58
2024-04-18T21:27:33.536Z,1.60
2024-04-18T21:32:35.427Z,1.70
2024-04-18T21:37:37.299Z,1.83
2024-04-18T21:42:39.248Z,1.90
2024-04-18T21:47:41.262Z,1.42
2024-04-18T21:52:43.073Z,2.10
2024-04-18T21:57:44.992Z,2.00
2024-04-18T22:02:47.031Z,2.20
2024-04-18T22:07:48.911Z,2.38
2024-04-18T22:12:50.821Z,2.20
2024-04-18T22:17:52.880Z,2.25
2024-04-18T22:22:54.740Z,2.10
2024-04-18T22:27:56.702Z,2.33
2024-04-18T22:32:58.653Z,2.00
2024-04-18T22:38:00.538Z,2.40
2024-04-18T22:43:02.649Z,2.55
2024-04-18T22:48:05.045Z,2.30
2024-04-18T22:53:06.926Z,2.75
2024-04-18T22:58:09.843Z,2.58
2024-04-18T23:03:11.716Z,2.55
2024-04-18T23:08:13.662Z,2.50
2024-04-18T23:13:15.691Z,2.78
2024-04-18T23:18:20.527Z,2.45
2024-04-18T23:23:22.483Z,2.80
2024-04-18T23:28:24.309Z,2.53
2024-04-18T23:33:26.266Z,2.38
2024-04-18T23:38:28.221Z,2.72
2024-04-18T23:43:30.066Z,2.75
2024-04-18T23:48:32.187Z,2.30
2024-04-18T23:53:34.116Z,3.08
2024-04-18T23:58:36.001Z,2.38
